Terminal Aerodrome Forecast
Issued by NWS

Home | Current Version | Previous Version | Text Only | Print | Product List | Glossary On
Versions: 1 2 3 4 5 6 7 8 9 10 11 12 13 14 15
501
FTUS46 KLOX 181454 AAB
TAFSBP
TAF AMD
KSBP 181454Z 1815/1912 12005KT P6SM BKN019 OVC100
     FM181600 15010KT P6SM SCT015 BKN090
     FM182100 15012KT P6SM -SHRA BKN020 OVC040
     FM190300 14015G20KT 5SM -RA BR OVC015
     FM190800 15015G22KT 3SM RA BR BKN006 OVC012=

USA.gov is the U.S. government's official web portal to all federal, state and local government web resources and services.